Time;durP1;ratioP1;P1;durP2;ratioP2;P2;SDS_P1;SDS_P2;PMS_P1;PMS_P2;Temp;Humidity;BMP_temperature;BMP_pressure;BME280_temperature;BME280_humidity;BME280_pressure;Samples;Min_cycle;Max_cycle;Signal;HPM_P1;HPM_P2
2022/01/22 07:36:42;;;;;;;13.25;3.05;;;5.60;99.90;;;;;;6188645;22;20357;-77
2022/01/22 07:39:07;;;;;;;11.13;2.90;;;5.60;99.90;;;;;;6136491;23;20519;-78
2022/01/22 07:41:43;;;;;;;7.13;2.60;;;5.70;99.90;;;;;;6106391;23;20029;-77
2022/01/22 07:44:38;;;;;;;8.27;3.03;;;5.60;99.90;;;;;;6154594;23;20396;-77
2022/01/22 07:47:26;;;;;;;;;;;;;;;;;;;;;
2022/01/22 07:49:54;;;;;;;8.25;2.60;;;5.70;99.90;;;;;;6155917;23;20079;-77
2022/01/22 07:52:47;;;;;;;4.13;2.30;;;5.60;99.90;;;;;;6157381;23;20024;-77
2022/01/22 07:59:12;;;;;;;8.20;3.70;;;5.70;99.90;;;;;;6092906;23;20061;-77
2022/01/22 08:02:31;;;;;;;4.30;1.98;;;5.70;99.90;;;;;;6182399;23;20017;-78
2022/01/22 08:05:12;;;;;;;8.05;2.47;;;5.70;99.90;;;;;;6133640;23;20096;-77
2022/01/22 08:07:44;;;;;;;8.43;2.58;;;5.70;99.90;;;;;;6156941;23;20056;-77
2022/01/22 08:10:23;;;;;;;6.80;2.72;;;5.70;99.90;;;;;;6133766;23;20344;-77
2022/01/22 08:17:11;;;;;;;7.55;2.50;;;5.70;99.90;;;;;;6069477;23;20018;-77
2022/01/22 08:20:02;;;;;;;6.03;2.30;;;5.70;99.90;;;;;;6007344;23;20455;-77
2022/01/22 08:22:28;;;;;;;5.15;2.15;;;5.70;99.90;;;;;;5983247;23;20024;-77
2022/01/22 08:24:55;;;;;;;3.85;2.08;;;5.70;99.90;;;;;;6006271;23;20031;-77
2022/01/22 08:30:24;;;;;;;5.95;1.67;;;5.70;99.90;;;;;;6133464;23;20021;-77
2022/01/22 08:36:02;;;;;;;4.47;1.80;;;5.70;99.90;;;;;;6098043;23;20022;-77
2022/01/22 08:38:30;;;;;;;5.38;2.17;;;5.70;99.90;;;;;;6082863;23;20025;-77
2022/01/22 08:40:57;;;;;;;4.47;1.80;;;5.70;99.90;;;;;;6157076;23;20122;-77
2022/01/22 08:43:26;;;;;;;5.95;1.70;;;5.70;99.90;;;;;;6157611;23;20028;-77
2022/01/22 08:45:54;;;;;;;5.85;2.13;;;5.80;99.90;;;;;;6157064;23;20139;-77
2022/01/22 08:48:22;;;;;;;3.05;1.60;;;5.80;99.90;;;;;;6133321;23;20017;-77
2022/01/22 08:50:49;;;;;;;4.93;1.80;;;5.80;99.90;;;;;;6157454;23;20048;-78
2022/01/22 08:53:15;;;;;;;2.55;1.50;;;5.90;99.90;;;;;;6084485;23;20017;-77
2022/01/22 08:59:16;;;;;;;6.40;2.42;;;5.80;99.90;;;;;;6160245;23;20071;-78
2022/01/22 09:01:44;;;;;;;5.05;1.90;;;5.90;99.90;;;;;;6156478;23;20473;-78
2022/01/22 09:04:10;;;;;;;6.10;2.30;;;5.90;99.90;;;;;;6155662;23;20369;-77
2022/01/22 09:06:36;;;;;;;5.82;1.83;;;5.90;99.90;;;;;;6155831;23;20019;-78
2022/01/22 09:09:21;;;;;;;5.30;2.10;;;5.90;99.90;;;;;;6156288;23;20035;-77
2022/01/22 09:11:47;;;;;;;2.85;1.83;;;5.90;99.90;;;;;;6156833;23;20083;-77
2022/01/22 09:14:16;;;;;;;4.18;1.80;;;5.90;99.90;;;;;;6132975;23;20021;-77
2022/01/22 09:16:42;;;;;;;2.67;2.05;;;5.90;99.90;;;;;;6133080;23;20107;-77
2022/01/22 09:19:11;;;;;;;9.00;4.47;;;6.00;99.90;;;;;;6132367;23;20017;-77
2022/01/22 09:21:42;;;;;;;4.13;1.63;;;6.00;99.90;;;;;;6131928;23;20472;-77
2022/01/22 09:24:08;;;;;;;3.50;1.77;;;6.00;99.90;;;;;;6156451;23;20021;-77
2022/01/22 09:26:39;;;;;;;3.50;1.50;;;6.00;99.90;;;;;;6157079;23;20028;-77
2022/01/22 09:29:05;;;;;;;2.50;1.55;;;6.00;99.90;;;;;;6158319;23;20322;-77
2022/01/22 09:31:34;;;;;;;5.63;2.60;;;6.10;99.90;;;;;;6134277;23;20024;-77
2022/01/22 09:38:25;;;;;;;4.85;1.73;;;6.20;99.90;;;;;;6181225;23;20024;-77
2022/01/22 09:41:30;;;;;;;5.57;2.08;;;6.20;99.90;;;;;;6065998;23;20025;-77
2022/01/22 09:43:57;;;;;;;6.57;1.77;;;6.20;99.90;;;;;;6041894;23;20023;-76
2022/01/22 09:46:25;;;;;;;5.05;1.65;;;6.20;99.90;;;;;;6114829;23;20096;-78
2022/01/22 09:48:54;;;;;;;3.88;1.90;;;6.20;99.90;;;;;;6155302;23;20092;-78
2022/01/22 09:51:20;;;;;;;6.75;2.22;;;6.20;99.90;;;;;;6130535;23;20457;-78
2022/01/22 09:53:47;;;;;;;5.32;1.70;;;6.20;99.90;;;;;;6156466;23;20032;-78
2022/01/22 09:56:16;;;;;;;8.82;1.80;;;6.20;99.90;;;;;;6156907;23;20021;-77
2022/01/22 09:58:42;;;;;;;7.03;1.50;;;6.20;99.90;;;;;;6156528;23;20092;-78
2022/01/22 10:01:22;;;;;;;5.35;1.88;;;6.20;99.90;;;;;;6156914;23;20060;-77
2022/01/22 10:03:49;;;;;;;7.15;2.03;;;6.10;99.90;;;;;;6156447;23;20021;-78
2022/01/22 10:06:17;;;;;;;4.03;1.80;;;6.10;99.90;;;;;;6156962;23;20294;-78
2022/01/22 10:08:43;;;;;;;8.45;2.38;;;6.10;99.90;;;;;;6157051;23;20114;-78
2022/01/22 10:11:27;;;;;;;5.18;2.97;;;6.10;99.90;;;;;;6156509;23;20471;-78
2022/01/22 10:13:58;;;;;;;7.90;2.47;;;6.10;99.90;;;;;;6157109;23;20017;-78
2022/01/22 10:16:29;;;;;;;12.68;3.97;;;6.20;99.90;;;;;;6156862;23;20079;-78
2022/01/22 10:19:23;;;;;;;10.95;3.60;;;6.20;99.90;;;;;;6158615;23;20021;-78
2022/01/22 10:22:22;;;;;;;7.37;2.57;;;6.20;99.90;;;;;;6157684;23;20029;-78
2022/01/22 10:24:49;;;;;;;8.07;2.55;;;6.10;99.90;;;;;;6151796;23;20276;-78
2022/01/22 10:27:38;;;;;;;9.77;2.90;;;6.10;99.90;;;;;;6127145;23;20017;-78
2022/01/22 10:46:44;;;;;;;7.47;3.60;;;6.20;99.90;;;;;;6256108;22;20838;-84
2022/01/22 10:49:12;;;;;;;7.63;2.92;;;6.20;99.90;;;;;;6216242;22;20015;-85
2022/01/22 10:51:49;;;;;;;11.57;3.45;;;6.20;99.90;;;;;;6216809;22;20046;-84
2022/01/22 10:54:16;;;;;;;7.45;3.28;;;6.20;99.90;;;;;;6241522;22;20019;-84
2022/01/22 10:56:42;;;;;;;6.25;2.55;;;6.30;99.90;;;;;;6216392;22;20020;-84
2022/01/22 10:59:13;;;;;;;8.45;3.50;;;6.50;99.90;;;;;;6241632;22;20019;-84
2022/01/22 11:01:48;;;;;;;9.30;4.00;;;6.90;99.90;;;;;;6217053;22;20051;-84
2022/01/22 11:04:16;;;;;;;5.45;3.33;;;6.40;99.90;;;;;;6218055;22;20362;-84
2022/01/22 11:06:52;;;;;;;9.27;4.00;;;6.30;99.90;;;;;;6241284;22;20016;-84
2022/01/22 11:09:19;;;;;;;7.85;2.90;;;6.40;99.90;;;;;;6215826;22;20011;-84
2022/01/22 11:11:44;;;;;;;7.95;4.38;;;6.40;99.90;;;;;;6215889;22;20022;-84
2022/01/22 11:14:12;;;;;;;5.63;3.40;;;6.50;99.90;;;;;;6190797;22;20522;-83
2022/01/22 11:16:41;;;;;;;8.48;4.50;;;6.60;99.90;;;;;;6215878;22;20110;-84
2022/01/22 11:19:09;;;;;;;6.55;2.90;;;6.70;99.90;;;;;;6241213;22;20024;-84
2022/01/22 11:21:40;;;;;;;10.45;3.55;;;6.90;99.90;;;;;;6219204;22;20027;-84
2022/01/22 11:24:08;;;;;;;4.47;2.90;;;6.80;99.90;;;;;;6218840;22;20477;-84
2022/01/22 11:26:37;;;;;;;10.38;2.90;;;6.90;99.90;;;;;;6243068;22;20047;-85
2022/01/22 11:29:04;;;;;;;6.15;2.72;;;6.90;99.90;;;;;;6220473;22;20197;-84
2022/01/22 11:31:31;;;;;;;12.70;4.15;;;6.90;99.90;;;;;;6221308;22;20042;-85
2022/01/22 11:34:01;;;;;;;9.75;3.80;;;6.90;99.90;;;;;;6245797;22;20332;-85
2022/01/22 11:36:37;;;;;;;8.85;2.92;;;7.00;99.90;;;;;;6245886;22;20327;-85
2022/01/22 11:39:04;;;;;;;4.55;2.42;;;7.10;99.90;;;;;;6245697;22;20358;-84
2022/01/22 11:41:29;;;;;;;7.28;2.45;;;7.00;99.90;;;;;;6221290;22;20020;-85
2022/01/22 11:46:41;;;;;;;9.00;2.97;;;6.90;99.90;;;;;;6221808;22;20028;-84
2022/01/22 11:49:12;;;;;;;9.23;2.33;;;6.90;99.90;;;;;;6221484;22;20087;-83
2022/01/22 11:51:38;;;;;;;6.43;2.85;;;6.90;99.90;;;;;;6245904;22;20016;-84
2022/01/22 11:54:04;;;;;;;7.13;3.88;;;6.90;99.90;;;;;;6246253;22;20511;-85
2022/01/22 11:56:40;;;;;;;7.70;2.58;;;6.90;99.90;;;;;;6246320;22;20026;-85
2022/01/22 11:59:12;;;;;;;9.68;2.90;;;6.90;99.90;;;;;;6220647;22;20082;-82
2022/01/22 12:01:41;;;;;;;6.20;2.30;;;6.80;99.90;;;;;;6244898;22;20102;-87
2022/01/22 12:04:14;;;;;;;7.18;2.58;;;6.80;99.90;;;;;;6244402;22;20023;-85
2022/01/22 12:07:00;;;;;;;8.52;4.10;;;6.80;99.90;;;;;;6194284;22;20099;-83
2022/01/22 12:09:30;;;;;;;5.88;2.63;;;6.70;99.90;;;;;;6230943;23;20020;-88
2022/01/22 12:14:55;;;;;;;10.50;4.70;;;7.10;99.90;;;;;;6258515;22;20020;-85
2022/01/22 12:17:47;;;;;;;9.05;4.10;;;6.70;99.90;;;;;;6237658;22;20072;-84
2022/01/22 12:23:14;;;;;;;13.70;5.13;;;6.50;99.90;;;;;;6268952;22;20010;-85
2022/01/22 12:25:40;;;;;;;11.82;5.13;;;6.50;99.90;;;;;;6241382;22;20011;-85
2022/01/22 12:28:07;;;;;;;9.00;4.05;;;6.40;99.90;;;;;;6263626;22;20704;-85
2022/01/22 12:30:48;;;;;;;15.38;5.65;;;6.40;99.90;;;;;;6264601;22;20062;-85
2022/01/22 12:33:36;;;;;;;16.15;6.10;;;6.40;99.90;;;;;;6242138;22;20027;-85
2022/01/22 12:36:08;;;;;;;10.32;5.47;;;6.40;99.90;;;;;;6253124;22;20051;-85
2022/01/22 12:38:49;;;;;;;;;;;6.40;99.90;;;;;;6271351;22;20026;-84
2022/01/22 12:44:31;;;;;;;16.23;5.05;;;6.40;99.90;;;;;;6258581;22;20077;-85
2022/01/22 12:47:03;;;;;;;11.38;4.28;;;6.40;99.90;;;;;;6224199;22;20016;-85
2022/01/22 12:49:29;;;;;;;15.50;5.57;;;6.40;99.90;;;;;;6262858;22;20470;-85
2022/01/22 12:52:03;;;;;;;15.30;4.40;;;6.40;99.90;;;;;;6213958;22;20019;-85
2022/01/22 12:54:38;;;;;;;14.18;5.22;;;6.40;99.90;;;;;;6263516;22;20015;-86
2022/01/22 12:57:06;;;;;;;14.05;4.53;;;6.40;99.90;;;;;;6239721;22;20107;-86
2022/01/22 12:59:34;;;;;;;11.52;4.57;;;6.40;99.90;;;;;;6212212;22;20087;-85
2022/01/22 13:02:00;;;;;;;13.88;4.90;;;6.40;99.90;;;;;;6265928;22;20019;-85
2022/01/22 13:04:26;;;;;;;16.23;5.22;;;6.40;99.90;;;;;;6206943;22;20019;-85
2022/01/22 13:06:53;;;;;;;16.48;5.50;;;6.40;99.90;;;;;;6248016;22;20107;-85
2022/01/22 13:09:19;;;;;;;15.32;5.43;;;6.40;99.90;;;;;;6249703;22;20078;-85
2022/01/22 13:11:52;;;;;;;11.95;5.45;;;6.40;99.90;;;;;;6249136;22;20015;-85
2022/01/22 13:14:19;;;;;;;;;;;6.60;99.90;;;;;;6248581;22;20035;-85
2022/01/22 13:16:48;;;;;;;11.32;5.60;;;6.40;99.90;;;;;;6248212;22;19915;-86
2022/01/22 13:19:14;;;;;;;15.45;5.60;;;6.40;99.90;;;;;;6274015;22;20014;-85
2022/01/22 13:21:54;;;;;;;15.93;5.65;;;6.40;99.90;;;;;;6249136;22;20175;-85
2022/01/22 13:24:25;;;;;;;6.97;4.75;;;6.40;99.90;;;;;;6250165;22;20031;-85
2022/01/22 13:27:09;;;;;;;12.25;5.43;;;6.30;99.90;;;;;;6275807;22;20031;-85
2022/01/22 13:29:41;;;;;;;16.77;5.78;;;6.30;99.90;;;;;;6244568;22;20024;-85
2022/01/22 13:32:18;;;;;;;18.52;5.55;;;6.30;99.90;;;;;;6247122;22;20027;-85
2022/01/22 13:49:19;;;;;;;13.70;5.20;;;6.20;99.90;;;;;;6248045;22;20570;-85
2022/01/22 13:51:46;;;;;;;15.50;5.25;;;6.20;99.90;;;;;;6246883;22;20019;-86
2022/01/22 13:54:13;;;;;;;13.77;5.75;;;6.20;99.90;;;;;;6229268;23;20039;-86
2022/01/22 13:56:49;;;;;;;25.17;6.53;;;6.20;99.90;;;;;;6241526;23;20016;-86
2022/01/22 13:59:17;;;;;;;12.13;5.97;;;6.30;99.90;;;;;;6260533;23;20058;-86
2022/01/22 14:02:04;;;;;;;12.90;5.65;;;6.30;99.90;;;;;;6242277;23;20024;-86
2022/01/22 14:04:41;;;;;;;24.55;6.97;;;6.30;99.90;;;;;;6242095;23;20072;-85
2022/01/22 14:07:18;;;;;;;16.10;6.45;;;6.30;99.90;;;;;;6238305;22;20477;-86
2022/01/22 14:09:56;;;;;;;17.65;8.13;;;6.30;99.90;;;;;;6246967;22;20016;-86
2022/01/22 14:12:24;;;;;;;17.30;6.15;;;6.30;99.90;;;;;;6222495;22;20465;-86
2022/01/22 14:15:12;;;;;;;12.27;6.35;;;6.30;99.90;;;;;;6247329;22;20020;-86
2022/01/22 14:17:54;;;;;;;17.60;5.75;;;6.30;99.90;;;;;;6227516;22;20008;-86
2022/01/22 14:20:25;;;;;;;14.70;5.47;;;6.30;99.90;;;;;;6248950;22;20022;-86
2022/01/22 14:23:06;;;;;;;10.80;4.15;;;6.70;99.90;;;;;;6248376;22;20039;-86
2022/01/22 14:25:35;;;;;;;11.57;4.03;;;6.40;99.90;;;;;;6250384;22;20063;-86
2022/01/22 14:28:06;;;;;;;12.30;3.80;;;7.30;99.90;;;;;;6275465;22;20047;-85
2022/01/22 14:30:46;;;;;;;8.30;3.55;;;6.20;99.90;;;;;;6275809;22;20003;-86
2022/01/22 14:33:15;;;;;;;10.80;3.00;;;6.30;99.90;;;;;;6223793;22;20019;-86
2022/01/22 14:35:42;;;;;;;11.88;2.95;;;6.20;99.90;;;;;;6275337;22;20059;-85
2022/01/22 14:38:38;;;;;;;13.95;2.95;;;6.30;99.90;;;;;;6248477;22;20030;-86
2022/01/22 14:44:48;;;;;;;12.20;2.80;;;6.20;99.90;;;;;;6273261;22;20019;-86
2022/01/22 14:46:57;;;;;;;8.48;2.78;;;6.10;99.90;;;;;;6261731;22;20069;-86
2022/01/22 14:49:25;;;;;;;15.27;3.40;;;6.10;99.90;;;;;;6248210;22;20008;-86
2022/01/22 14:51:51;;;;;;;11.50;3.40;;;6.10;99.90;;;;;;6248701;22;20011;-86
2022/01/22 14:54:19;;;;;;;12.27;3.67;;;6.60;99.90;;;;;;6249837;22;20000;-86
2022/01/22 14:56:45;;;;;;;13.77;3.38;;;6.10;99.90;;;;;;6224493;22;20015;-85
2022/01/22 14:59:11;;;;;;;13.35;3.30;;;6.00;99.90;;;;;;6248784;22;20015;-85
2022/01/22 15:01:36;;;;;;;18.63;4.50;;;7.10;99.90;;;;;;6248985;22;20031;-86
2022/01/22 15:04:02;;;;;;;10.60;3.58;;;6.00;99.90;;;;;;6248340;22;20095;-87
2022/01/22 15:06:28;;;;;;;15.10;3.58;;;6.00;99.90;;;;;;6223074;22;20034;-85
2022/01/22 15:08:54;;;;;;;7.22;3.40;;;5.90;99.90;;;;;;6246665;22;20020;-85
2022/01/22 15:11:20;;;;;;;9.25;3.05;;;7.10;99.90;;;;;;6245063;22;20267;-85
2022/01/22 15:13:46;;;;;;;11.77;4.07;;;6.00;99.90;;;;;;6216698;22;20016;-85
2022/01/22 15:16:17;;;;;;;8.70;2.95;;;5.90;99.90;;;;;;6224508;22;20077;-89
2022/01/22 15:21:10;;;;;;;15.57;5.18;;;5.90;99.90;;;;;;6248953;22;20026;-93
2022/01/22 15:23:36;;;;;;;13.05;4.00;;;5.90;99.90;;;;;;6247966;22;20016;-86
2022/01/22 15:26:02;;;;;;;10.30;3.78;;;5.90;99.90;;;;;;6232171;22;20016;-87
2022/01/22 15:28:33;;;;;;;11.43;2.85;;;6.50;99.90;;;;;;6248755;22;20016;-86
2022/01/22 15:30:58;;;;;;;9.98;3.10;;;5.80;99.90;;;;;;6222865;22;20319;-85
2022/01/22 15:33:47;;;;;;;12.90;4.53;;;5.80;99.90;;;;;;6221488;22;20046;-86
2022/01/22 15:36:10;;;;;;;9.73;5.32;;;5.80;99.90;;;;;;6226206;22;20085;-85
2022/01/22 15:38:36;;;;;;;6.40;3.38;;;5.80;99.90;;;;;;6196930;22;20019;-84
2022/01/22 15:41:02;;;;;;;11.32;3.25;;;5.80;99.90;;;;;;6196549;22;20418;-91
2022/01/22 15:43:27;;;;;;;9.70;3.30;;;5.70;99.90;;;;;;6225704;22;20016;-90
2022/01/22 15:45:53;;;;;;;5.63;3.03;;;5.70;99.90;;;;;;6251422;22;20390;-88
2022/01/22 15:48:20;;;;;;;10.30;2.80;;;5.90;99.90;;;;;;6224573;22;20027;-88
2022/01/22 15:50:46;;;;;;;8.40;2.67;;;5.60;99.90;;;;;;6249987;22;20016;-87
2022/01/22 15:53:14;;;;;;;7.63;3.05;;;5.60;99.90;;;;;;6247397;22;20078;-89
2022/01/22 15:55:40;;;;;;;11.50;2.97;;;6.30;99.90;;;;;;6216464;22;20047;-88
2022/01/22 15:58:06;;;;;;;11.52;2.97;;;5.60;99.90;;;;;;6191737;22;20020;-88
2022/01/22 16:00:37;;;;;;;11.27;3.47;;;5.50;99.90;;;;;;6191428;22;20019;-88
2022/01/22 16:03:04;;;;;;;7.03;3.83;;;5.50;99.90;;;;;;6217815;22;20073;-88
2022/01/22 16:05:30;;;;;;;12.27;3.60;;;5.90;99.90;;;;;;6215724;22;20022;-87
2022/01/22 16:07:55;;;;;;;7.85;3.22;;;5.50;99.90;;;;;;6216112;22;20016;-88
2022/01/22 16:10:21;;;;;;;12.43;3.40;;;5.40;99.90;;;;;;6192583;22;20019;-87
2022/01/22 16:12:48;;;;;;;12.48;3.92;;;5.40;99.90;;;;;;6218119;22;20045;-87
2022/01/22 16:15:15;;;;;;;5.68;2.60;;;5.70;99.90;;;;;;6218216;22;20046;-87
2022/01/22 16:17:43;;;;;;;10.32;2.70;;;5.30;99.90;;;;;;6220402;22;20019;-87
2022/01/22 16:20:09;;;;;;;10.88;3.33;;;5.30;99.90;;;;;;6198643;22;20020;-87
2022/01/22 16:22:35;;;;;;;13.23;3.08;;;5.30;99.90;;;;;;6219448;22;20130;-87
2022/01/22 16:25:02;;;;;;;9.52;4.00;;;5.20;99.90;;;;;;6243122;22;20027;-87
2022/01/22 16:27:29;;;;;;;10.50;3.63;;;5.20;99.90;;;;;;6218800;22;20022;-87
2022/01/22 16:29:56;;;;;;;9.05;4.28;;;6.10;99.90;;;;;;6192810;22;20016;-87
2022/01/22 16:32:25;;;;;;;9.45;3.83;;;5.60;99.90;;;;;;6194911;22;20019;-87
2022/01/22 16:34:53;;;;;;;10.05;4.07;;;5.50;99.90;;;;;;6219907;22;20058;-91
2022/01/22 16:37:19;;;;;;;11.70;5.03;;;5.40;99.90;;;;;;6194732;22;20058;-93
2022/01/22 16:39:46;;;;;;;10.70;4.95;;;5.10;99.90;;;;;;6194535;22;20037;-87
2022/01/22 16:42:15;;;;;;;18.13;5.82;;;5.20;99.90;;;;;;6217456;22;20019;-87
2022/01/22 16:45:33;;;;;;;11.25;5.22;;;5.10;99.90;;;;;;6216316;22;20024;-87
2022/01/22 16:51:19;;;;;;;15.38;5.38;;;5.20;99.90;;;;;;6242579;22;20099;-87
2022/01/22 16:58:03;;;;;;;15.52;5.75;;;5.20;99.90;;;;;;6216972;22;20384;-87
2022/01/22 17:00:31;;;;;;;13.82;6.35;;;5.20;99.90;;;;;;6241059;22;20054;-87
2022/01/22 17:02:58;;;;;;;13.05;4.90;;;5.10;99.90;;;;;;6217300;22;20069;-89
2022/01/22 17:05:24;;;;;;;13.20;5.95;;;5.10;99.90;;;;;;6216580;22;20095;-86
2022/01/22 17:15:29;;;;;;;11.55;5.70;;;5.10;99.90;;;;;;6242515;22;20122;-88
2022/01/22 17:17:55;;;;;;;9.98;5.63;;;5.10;99.90;;;;;;6191859;22;20726;-86
2022/01/22 17:20:21;;;;;;;11.38;6.05;;;5.10;99.90;;;;;;6218311;22;20098;-87
2022/01/22 17:22:47;;;;;;;10.45;5.68;;;4.70;99.90;;;;;;6244879;22;20070;-86
2022/01/22 17:25:18;;;;;;;10.35;4.93;;;5.10;99.90;;;;;;6217316;22;20042;-85
2022/01/22 17:27:45;;;;;;;15.05;4.88;;;5.10;99.90;;;;;;6219448;22;20089;-87
2022/01/22 17:30:11;;;;;;;6.50;3.33;;;5.30;99.90;;;;;;6194396;22;20019;-85
2022/01/22 17:32:39;;;;;;;7.88;3.08;;;5.10;99.90;;;;;;6219190;22;20023;-91
2022/01/22 17:35:05;;;;;;;8.90;3.13;;;5.00;99.90;;;;;;6245806;22;20101;-92
2022/01/22 17:37:30;;;;;;;10.00;3.33;;;5.00;99.90;;;;;;6194058;22;20023;-91
2022/01/22 17:39:56;;;;;;;9.35;4.18;;;6.00;99.90;;;;;;6195520;22;20020;-88
2022/01/22 17:42:26;;;;;;;6.13;3.10;;;5.40;99.90;;;;;;6219282;22;20530;-87
2022/01/22 17:44:57;;;;;;;9.80;5.03;;;5.00;99.90;;;;;;6194087;22;20020;-90
2022/01/22 17:47:23;;;;;;;15.13;7.18;;;4.90;99.90;;;;;;6190577;23;20016;-92
2022/01/22 17:49:48;;;;;;;13.55;7.70;;;5.40;99.90;;;;;;6217400;23;20558;-86
2022/01/22 17:52:15;;;;;;;14.95;6.50;;;4.20;99.90;;;;;;6240302;23;20018;-86
2022/01/22 17:54:41;;;;;;;7.75;4.72;;;5.70;99.90;;;;;;6215148;23;20016;-89
2022/01/22 17:57:07;;;;;;;9.43;6.00;;;4.90;99.90;;;;;;6214910;23;20447;-85
2022/01/22 17:59:33;;;;;;;13.65;7.22;;;4.90;99.90;;;;;;6188105;23;20055;-92
2022/01/22 18:02:02;;;;;;;9.48;5.28;;;5.40;99.90;;;;;;6188623;23;20451;-91
2022/01/22 18:04:30;;;;;;;11.77;5.00;;;4.90;99.90;;;;;;6212307;23;20027;-91
2022/01/22 18:06:55;;;;;;;9.80;5.55;;;5.00;99.90;;;;;;6186553;23;20027;-91
2022/01/22 18:09:21;;;;;;;8.52;4.80;;;5.20;99.90;;;;;;6210433;23;20016;-91
2022/01/22 18:11:49;;;;;;;8.07;4.13;;;5.00;99.90;;;;;;6160107;23;20019;-91
2022/01/22 18:14:15;;;;;;;11.50;5.20;;;5.00;99.90;;;;;;6185632;23;20024;-91
2022/01/22 18:16:41;;;;;;;13.27;4.68;;;5.00;99.90;;;;;;6186416;23;20024;-91
2022/01/22 18:19:07;;;;;;;7.53;4.30;;;5.00;99.90;;;;;;6212834;23;20020;-91
2022/01/22 18:21:35;;;;;;;8.25;4.35;;;5.00;99.90;;;;;;6213154;23;20277;-91
2022/01/22 18:24:02;;;;;;;10.23;4.50;;;5.10;99.90;;;;;;6212666;23;20016;-91
2022/01/22 18:26:29;;;;;;;12.23;4.90;;;5.00;99.90;;;;;;6213157;23;20490;-91
2022/01/22 18:28:57;;;;;;;10.45;5.60;;;5.00;99.90;;;;;;6212701;23;20122;-91
2022/01/22 18:31:24;;;;;;;7.18;4.07;;;5.50;99.90;;;;;;6211330;23;20016;-91
2022/01/22 18:33:50;;;;;;;13.10;4.22;;;5.00;99.90;;;;;;6211495;23;20016;-91
2022/01/22 18:36:16;;;;;;;7.40;4.55;;;5.10;99.90;;;;;;6185477;23;20093;-91
2022/01/22 18:38:42;;;;;;;10.25;5.43;;;5.60;99.90;;;;;;6186857;23;20083;-91
2022/01/22 18:41:09;;;;;;;11.18;5.47;;;5.00;99.90;;;;;;6163123;23;20036;-91
2022/01/22 18:43:37;;;;;;;8.55;5.20;;;5.00;99.90;;;;;;6186623;23;20024;-90
2022/01/22 18:46:10;;;;;;;10.40;4.57;;;5.00;99.90;;;;;;6185501;23;20017;-91
2022/01/22 18:48:36;;;;;;;;;;;5.20;99.90;;;;;;6188394;23;20020;-90
2022/01/22 18:51:05;;;;;;;11.75;5.00;;;5.00;99.90;;;;;;6211190;23;20262;-90
2022/01/22 18:53:31;;;;;;;9.75;5.47;;;5.00;99.90;;;;;;6212439;23;20024;-91
2022/01/22 18:55:57;;;;;;;8.77;6.50;;;5.00;99.90;;;;;;6186954;23;20027;-91
2022/01/22 18:58:22;;;;;;;11.45;6.05;;;5.40;99.90;;;;;;6185783;23;20042;-91
2022/01/22 19:00:48;;;;;;;11.68;6.85;;;5.00;99.90;;;;;;6210871;23;20346;-91
2022/01/22 19:03:14;;;;;;;15.98;7.70;;;5.00;99.90;;;;;;6210989;23;20554;-91
2022/01/22 19:05:41;;;;;;;10.80;7.10;;;5.30;99.90;;;;;;6211298;23;20016;-91
2022/01/22 19:08:07;;;;;;;14.73;6.43;;;5.00;99.90;;;;;;6236324;23;20020;-91
2022/01/22 19:10:34;;;;;;;11.35;6.72;;;5.00;99.90;;;;;;6186098;23;20027;-90
2022/01/22 19:13:00;;;;;;;12.25;6.10;;;5.00;99.90;;;;;;6185957;23;20024;-90
2022/01/22 19:15:26;;;;;;;9.85;5.45;;;5.10;99.90;;;;;;6213687;23;20481;-90
2022/01/22 19:17:51;;;;;;;14.98;8.43;;;5.00;99.90;;;;;;6186659;23;20094;-90
2022/01/22 19:20:19;;;;;;;31.25;12.98;;;5.40;99.90;;;;;;6185751;23;20024;-91
2022/01/22 19:28:04;;;;;;;14.85;8.70;;;5.10;99.90;;;;;;6241806;23;20023;-91
2022/01/22 19:30:38;;;;;;;11.90;5.13;;;5.10;99.90;;;;;;6236109;23;20016;-91
2022/01/22 19:33:10;;;;;;;14.20;5.90;;;5.00;99.90;;;;;;6212524;23;20031;-91
2022/01/22 19:35:41;;;;;;;12.13;4.88;;;5.00;99.90;;;;;;6214381;23;20023;-92
2022/01/22 19:38:09;;;;;;;7.97;5.00;;;5.10;99.90;;;;;;6189304;23;20023;-93
2022/01/22 19:40:36;;;;;;;8.27;5.07;;;5.00;99.90;;;;;;6187958;23;20016;-93
2022/01/22 19:43:05;;;;;;;12.02;5.85;;;5.10;99.90;;;;;;6187620;23;20020;-93
2022/01/22 19:45:33;;;;;;;14.55;6.07;;;5.00;99.90;;;;;;6191489;22;20024;-92
2022/01/22 19:48:00;;;;;;;13.23;6.57;;;5.60;99.90;;;;;;6219467;22;20301;-93
2022/01/22 19:50:27;;;;;;;14.50;7.97;;;5.00;99.90;;;;;;6220762;22;20110;-92
2022/01/22 19:52:54;;;;;;;17.52;7.47;;;5.00;99.90;;;;;;6242893;22;20026;-93
2022/01/22 19:55:21;;;;;;;14.52;7.22;;;5.00;99.90;;;;;;6192084;22;20098;-93
2022/01/22 19:57:47;;;;;;;12.75;6.63;;;5.00;99.90;;;;;;6217832;22;20545;-92
2022/01/22 20:00:15;;;;;;;15.38;6.78;;;5.00;99.90;;;;;;6194923;22;20016;-93
2022/01/22 20:02:41;;;;;;;14.38;6.35;;;5.00;99.90;;;;;;6192813;22;20019;-93
2022/01/22 20:05:07;;;;;;;7.38;5.18;;;5.90;99.90;;;;;;6192468;22;20110;-93
2022/01/22 20:07:36;;;;;;;14.13;6.18;;;5.00;99.90;;;;;;6218556;22;20089;-92
2022/01/22 20:10:18;;;;;;;13.70;6.30;;;5.00;99.90;;;;;;6193512;22;20552;-92
2022/01/22 20:12:55;;;;;;;12.45;6.20;;;5.00;99.90;;;;;;6219764;22;20461;-92
2022/01/22 20:15:21;;;;;;;9.02;5.57;;;5.00;99.90;;;;;;6219951;22;20084;-93
2022/01/22 20:17:48;;;;;;;10.02;5.28;;;5.80;99.90;;;;;;6193905;22;20019;-93
2022/01/22 20:20:13;;;;;;;13.52;5.50;;;5.00;99.90;;;;;;6217923;22;20054;-93
2022/01/22 20:22:39;;;;;;;11.00;5.75;;;5.80;99.90;;;;;;6218965;22;20019;-93
2022/01/22 20:25:05;;;;;;;14.32;6.28;;;5.00;99.90;;;;;;6191910;22;20024;-93
2022/01/22 20:27:35;;;;;;;10.82;5.63;;;5.00;99.90;;;;;;6193243;22;20142;-93
2022/01/22 20:30:01;;;;;;;13.95;5.18;;;5.70;99.90;;;;;;6195009;22;20497;-92
2022/01/22 20:32:27;;;;;;;9.75;5.50;;;5.20;99.90;;;;;;6194619;22;20055;-93
2022/01/22 20:34:53;;;;;;;8.95;5.15;;;5.00;99.90;;;;;;6217711;22;20059;-93
2022/01/22 20:37:19;;;;;;;10.13;5.35;;;5.00;99.90;;;;;;6193653;22;20051;-94
2022/01/22 20:39:45;;;;;;;10.95;4.95;;;5.00;99.90;;;;;;6192918;22;20023;-93
2022/01/22 20:42:10;;;;;;;11.65;5.07;;;5.40;99.90;;;;;;6217712;22;20077;-93
2022/01/22 20:44:39;;;;;;;11.80;5.07;;;5.00;99.90;;;;;;6193689;22;20485;-95
2022/01/22 20:47:05;;;;;;;9.52;5.22;;;5.00;99.90;;;;;;6169393;22;20020;-95
2022/01/22 20:49:33;;;;;;;9.40;5.20;;;5.00;99.90;;;;;;6195517;22;20707;-95
2022/01/22 20:52:01;;;;;;;13.32;5.32;;;5.50;99.90;;;;;;6218393;22;20012;-94
2022/01/22 20:54:27;;;;;;;13.68;5.63;;;5.90;99.90;;;;;;6219051;22;20023;-94
2022/01/22 20:56:56;;;;;;;12.45;6.57;;;4.90;99.90;;;;;;6218679;22;20020;-94
2022/01/22 20:59:22;;;;;;;13.75;7.55;;;5.00;99.90;;;;;;6195455;22;20081;-95
2022/01/22 21:01:48;;;;;;;14.73;7.38;;;5.50;99.90;;;;;;6193549;22;20020;-96
2022/01/22 21:04:14;;;;;;;21.58;7.22;;;5.00;99.90;;;;;;6219183;22;20111;-95
2022/01/22 21:06:39;;;;;;;15.25;9.50;;;5.10;99.90;;;;;;6195396;22;20758;-94
2022/01/22 21:09:08;;;;;;;24.92;10.93;;;6.00;99.90;;;;;;6193903;22;20020;-95
2022/01/22 21:11:36;;;;;;;17.30;8.18;;;5.00;99.90;;;;;;6171482;22;20059;-95
2022/01/22 21:14:02;;;;;;;14.75;7.30;;;5.40;99.90;;;;;;6218574;22;20015;-94
2022/01/22 21:16:29;;;;;;;18.48;7.90;;;4.90;99.90;;;;;;6168588;22;20098;-95
2022/01/22 21:18:57;;;;;;;15.13;8.40;;;4.90;99.90;;;;;;6195124;22;20024;-95
2022/01/22 21:21:24;;;;;;;17.55;8.07;;;4.90;99.90;;;;;;6218534;22;20038;-94
2022/01/22 21:23:50;;;;;;;16.88;7.82;;;5.20;99.90;;;;;;6218788;22;20722;-94
2022/01/22 21:26:17;;;;;;;17.67;8.20;;;4.90;99.90;;;;;;6193526;22;20043;-94
2022/01/22 21:28:45;;;;;;;15.23;8.25;;;4.90;99.90;;;;;;6219021;22;20697;-95
2022/01/22 21:31:11;;;;;;;15.75;7.50;;;4.90;99.90;;;;;;6218798;22;20023;-95
2022/01/22 21:33:49;;;;;;;15.48;7.80;;;4.90;99.90;;;;;;6193567;22;20019;-95
2022/01/22 21:36:19;;;;;;;13.27;7.05;;;4.90;99.90;;;;;;6195109;22;20493;-94
2022/01/22 21:41:36;;;;;;;15.63;7.30;;;5.00;99.90;;;;;;6181718;22;20043;-94
2022/01/22 21:44:02;;;;;;;22.95;8.63;;;4.90;99.90;;;;;;6193844;22;20332;-95
2022/01/22 21:46:28;;;;;;;14.15;8.45;;;5.00;99.90;;;;;;6193686;22;20065;-94
2022/01/22 21:48:55;;;;;;;18.35;9.48;;;4.90;99.90;;;;;;6194207;22;20054;-95
2022/01/22 21:51:20;;;;;;;15.27;7.95;;;5.70;99.90;;;;;;6193071;22;20091;-95
2022/01/22 21:53:50;;;;;;;15.70;7.65;;;6.10;99.90;;;;;;6193556;22;20057;-95
2022/01/22 21:56:19;;;;;;;15.90;7.45;;;5.00;99.90;;;;;;6193767;22;20309;-95
2022/01/22 21:58:45;;;;;;;16.08;7.20;;;5.00;99.90;;;;;;6219101;22;20023;-94
2022/01/22 22:01:11;;;;;;;16.45;6.38;;;5.60;99.90;;;;;;6201653;23;20024;-95
2022/01/22 22:03:37;;;;;;;16.33;7.78;;;5.50;99.90;;;;;;6188736;23;20031;-94
2022/01/22 22:06:04;;;;;;;14.07;7.13;;;5.10;99.90;;;;;;6191460;22;20447;-95
2022/01/22 22:08:29;;;;;;;17.55;6.65;;;5.00;99.90;;;;;;6221433;22;20340;-95
2022/01/22 22:10:56;;;;;;;13.88;6.47;;;4.90;99.90;;;;;;6194766;22;20015;-95
2022/01/22 22:13:24;;;;;;;14.52;6.70;;;4.70;99.90;;;;;;6194111;22;20046;-95
2022/01/22 22:15:50;;;;;;;12.00;7.05;;;4.90;99.90;;;;;;6195027;22;20102;-95